Saint Leonard, Canada
Current Conditions -  °F | °C
As of 10:54 AM on Thursday 30 Oct 2014 (Local Time) from KCAR Reporting Station
Scattered Clouds Scattered Clouds  
Wind Chill: 42°   Ceiling: Unl
Heat Index: 46°   Visibility: 10mi
Dew Point: 38°   Wind: 8mph
Humidity: 73%   Direction: 310°NW
Pressure: 29.8"   Gusts: NA
Location:  47.15°N, 67.83°W
Report Text: KCAR 301354Z AUTO 31007KT 10SM SCT022 08/03 A2980 RMK AO2 SLP098 T00780033
Loading
Personal Weather Stations






























Interactive Weather Map
Tropical Storm Tracking
New forecast layout! Learn more

10-Day Weather Forecast

Advertisements
Track Severe Weather on mobile